Bejou, Minnesota
Current Conditions -  °F | °C
As of 10:35 PM on Tuesday 21 Oct 2014 (Local Time) from K3N8 Reporting Station
Clear Clear  
Wind Chill: 11°   Ceiling: Unl
Heat Index: 11°   Visibility: 10mi
Dew Point:   Wind: 17mph
Humidity: 64%   Direction: 150°SSE
Pressure: 29.96"   Gusts: 24mph
Location:  47.44°N, 95.98°W
Report Text: K3N8 220335Z AUTO 15015G21KT 10SM CLR 11/04 A2996 RMK AO2 T01070041
Loading
Personal Weather Stations






























Interactive Weather Map
Tropical Storm Tracking
New forecast layout! Learn more

10-Day Weather Forecast

Advertisements
Track Severe Weather on mobile